Time;durP1;ratioP1;P1;durP2;ratioP2;P2;SDS_P1;SDS_P2;PMS_P1;PMS_P2;Temp;Humidity;BMP_temperature;BMP_pressure;BME280_temperature;BME280_humidity;BME280_pressure;Samples;Min_cycle;Max_cycle;Signal;HPM_P1;HPM_P2
2022/07/26 00:01:17;;;;;;;;;;;18.90;99.90;;;;;;4974977;28;19981;-79
2022/07/26 00:03:44;;;;;;;;;;;18.80;99.90;;;;;;4975190;28;19984;-79
2022/07/26 00:06:11;;;;;;;;;;;18.80;99.90;;;;;;4974943;28;20000;-79
2022/07/26 00:08:38;;;;;;;;;;;18.80;99.90;;;;;;4975700;28;20582;-79
2022/07/26 00:11:06;;;;;;;;;;;18.80;99.90;;;;;;4974905;28;19926;-79
2022/07/26 00:13:33;;;;;;;;;;;18.70;99.90;;;;;;4974344;28;20445;-78
2022/07/26 00:16:00;;;;;;;;;;;18.70;99.90;;;;;;4974358;28;19996;-79
2022/07/26 00:18:27;;;;;;;;;;;19.40;99.90;;;;;;4974264;28;19925;-78
2022/07/26 00:20:54;;;;;;;;;;;18.50;99.90;;;;;;4974445;28;19930;-79
2022/07/26 00:23:21;;;;;;;;;;;18.50;99.90;;;;;;4972800;28;19933;-79
2022/07/26 00:25:48;;;;;;;;;;;18.50;99.90;;;;;;4991586;28;20310;-78
2022/07/26 00:28:16;;;;;;;;;;;18.50;99.90;;;;;;4991567;28;19937;-79
2022/07/26 00:30:43;;;;;;;;;;;18.50;99.90;;;;;;4972975;28;19973;-78
2022/07/26 00:33:10;;;;;;;;;;;18.50;99.90;;;;;;4974136;28;19976;-79
2022/07/26 00:35:37;;;;;;;;;;;18.50;99.90;;;;;;4991740;28;20260;-79
2022/07/26 00:38:04;;;;;;;;;;;18.40;99.90;;;;;;4974113;28;19934;-78
2022/07/26 00:40:31;;;;;;;;;;;18.40;99.90;;;;;;4974391;28;19976;-79
2022/07/26 00:42:58;;;;;;;;;;;18.40;99.90;;;;;;4973705;28;20000;-79
2022/07/26 00:45:26;;;;;;;;;;;18.30;99.90;;;;;;4974012;28;19930;-78
2022/07/26 00:47:53;;;;;;;;;;;18.30;99.90;;;;;;4973809;28;20542;-79
2022/07/26 00:50:20;;;;;;;;;;;18.20;99.90;;;;;;4973352;28;19945;-79
2022/07/26 00:52:48;;;;;;;;;;;18.20;99.90;;;;;;4973598;28;19930;-79
2022/07/26 00:55:15;;;;;;;;;;;18.10;99.90;;;;;;4974114;28;19930;-79
2022/07/26 00:57:42;;;;;;;;;;;18.10;99.90;;;;;;4973518;28;19929;-79
2022/07/26 01:00:11;;;;;;;;;;;18.10;99.90;;;;;;4973633;28;19996;-78
2022/07/26 01:02:40;;;;;;;;;;;18.10;99.90;;;;;;4972792;28;19937;-79
2022/07/26 01:05:08;;;;;;;;;;;18.10;99.90;;;;;;4973253;28;19949;-79
2022/07/26 01:07:36;;;;;;;;;;;18.10;99.90;;;;;;4973609;28;19965;-79
2022/07/26 01:10:04;;;;;;;;;;;18.10;99.90;;;;;;4973360;28;19930;-79
2022/07/26 01:12:31;;;;;;;;;;;18.10;99.90;;;;;;4973041;28;19981;-79
2022/07/26 01:14:58;;;;;;;;;;;18.10;99.90;;;;;;4972935;28;20024;-79
2022/07/26 01:17:25;;;;;;;;;;;18.10;99.90;;;;;;4973687;28;19933;-78
2022/07/26 01:19:53;;;;;;;;;;;18.20;99.90;;;;;;4972379;28;19926;-77
2022/07/26 01:22:21;;;;;;;;;;;18.20;99.90;;;;;;4970967;28;20000;-78
2022/07/26 01:24:48;;;;;;;;;;;18.20;99.90;;;;;;5002667;28;19929;-79
2022/07/26 01:27:15;;;;;;;;;;;18.30;99.90;;;;;;4964538;28;19930;-79
2022/07/26 01:29:42;;;;;;;;;;;18.30;99.90;;;;;;4971670;28;19961;-78
2022/07/26 01:32:09;;;;;;;;;;;18.40;99.90;;;;;;4968274;28;19984;-78
2022/07/26 01:34:36;;;;;;;;;;;18.50;99.90;;;;;;5002107;28;20396;-79
2022/07/26 01:37:04;;;;;;;;;;;18.60;99.90;;;;;;4999675;28;19961;-78
2022/07/26 01:39:33;;;;;;;;;;;18.60;99.90;;;;;;4971003;28;19937;-78
2022/07/26 01:41:59;;;;;;;;;;;18.70;99.90;;;;;;4967463;28;20508;-78
2022/07/26 01:44:26;;;;;;;;;;;18.80;99.90;;;;;;4988103;28;19926;-79
2022/07/26 01:46:55;;;;;;;;;;;18.80;99.90;;;;;;4969208;28;21319;-78
2022/07/26 01:49:22;;;;;;;;;;;18.80;99.90;;;;;;4971441;28;19926;-80
2022/07/26 01:51:49;;;;;;;;;;;18.90;99.90;;;;;;5003369;28;19930;-78
2022/07/26 01:54:16;;;;;;;;;;;18.90;99.90;;;;;;4989225;28;19936;-80
2022/07/26 01:56:44;;;;;;;;;;;19.10;99.90;;;;;;5003719;28;19933;-80
2022/07/26 01:59:11;;;;;;;;;;;19.00;99.90;;;;;;4971305;28;19973;-78
2022/07/26 02:01:38;;;;;;;;;;;19.00;99.90;;;;;;4970724;28;20028;-77
2022/07/26 02:04:05;;;;;;;;;;;18.90;99.90;;;;;;5002378;28;19930;-79
2022/07/26 02:06:32;;;;;;;;;;;19.00;99.90;;;;;;4965338;28;19926;-78
2022/07/26 02:08:59;;;;;;;;;;;18.90;99.90;;;;;;4972268;28;20350;-79
2022/07/26 02:11:26;;;;;;;;;;;18.90;99.90;;;;;;4970043;28;19976;-79
2022/07/26 02:13:54;;;;;;;;;;;18.90;99.90;;;;;;4971514;28;19926;-79
2022/07/26 02:16:21;;;;;;;;;;;18.90;99.90;;;;;;4963339;28;19977;-79
2022/07/26 02:18:51;;;;;;;;;;;18.90;99.90;;;;;;5003542;28;19980;-79
2022/07/26 02:21:18;;;;;;;;;;;18.90;99.90;;;;;;4970676;28;19976;-82
2022/07/26 02:23:45;;;;;;;;;;;18.90;99.90;;;;;;4994340;28;19930;-83
2022/07/26 02:26:12;;;;;;;;;;;18.90;99.90;;;;;;4973225;28;19985;-83
2022/07/26 02:28:38;;;;;;;;;;;18.80;99.90;;;;;;4977759;28;20016;-82
2022/07/26 02:31:07;;;;;;;;;;;18.80;99.90;;;;;;4976108;28;19980;-83
2022/07/26 02:33:33;;;;;;;;;;;18.90;99.90;;;;;;4977410;28;20090;-83
2022/07/26 02:36:00;;;;;;;;;;;18.80;99.90;;;;;;4995922;28;19930;-83
2022/07/26 02:38:30;;;;;;;;;;;18.80;99.90;;;;;;4978771;28;19930;-84
2022/07/26 02:40:57;;;;;;;;;;;18.80;99.90;;;;;;4977649;28;19925;-83
2022/07/26 02:43:25;;;;;;;;;;;18.80;99.90;;;;;;4991635;28;19934;-83
2022/07/26 02:45:52;;;;;;;;;;;18.80;99.90;;;;;;4977585;28;19929;-83
2022/07/26 02:48:20;;;;;;;;;;;18.80;99.90;;;;;;4979658;28;19964;-83
2022/07/26 02:50:47;;;;;;;;;;;18.80;99.90;;;;;;4977768;28;19945;-83
2022/07/26 02:53:14;;;;;;;;;;;18.80;99.90;;;;;;4977322;28;19971;-79
2022/07/26 02:55:41;;;;;;;;;;;18.90;99.90;;;;;;4980322;28;19953;-79
2022/07/26 02:58:08;;;;;;;;;;;18.80;99.90;;;;;;5013032;28;19993;-79
2022/07/26 03:00:35;;;;;;;;;;;18.80;99.90;;;;;;4995990;28;19937;-79
2022/07/26 03:03:02;;;;;;;;;;;18.80;99.90;;;;;;5010385;28;19929;-79
2022/07/26 03:05:30;;;;;;;;;;;18.80;99.90;;;;;;4977877;28;19929;-79
2022/07/26 03:07:57;;;;;;;;;;;18.80;99.90;;;;;;4978823;28;19948;-79
2022/07/26 03:10:23;;;;;;;;;;;18.80;99.90;;;;;;4997142;28;20400;-79
2022/07/26 03:12:50;;;;;;;;;;;18.80;99.90;;;;;;4977518;28;19929;-80
2022/07/26 03:15:17;;;;;;;;;;;18.80;99.90;;;;;;4979200;28;20320;-79
2022/07/26 03:17:44;;;;;;;;;;;18.80;99.90;;;;;;4978733;28;19926;-79
2022/07/26 03:20:12;;;;;;;;;;;18.80;99.90;;;;;;5010271;28;19972;-79
2022/07/26 03:22:40;;;;;;;;;;;18.70;99.90;;;;;;4981458;28;20007;-80
2022/07/26 03:25:07;;;;;;;;;;;18.80;99.90;;;;;;4979273;28;19980;-79
2022/07/26 03:27:34;;;;;;;;;;;18.80;99.90;;;;;;4977788;28;19934;-79
2022/07/26 03:30:00;;;;;;;;;;;18.80;99.90;;;;;;4996405;28;19936;-79
2022/07/26 03:32:27;;;;;;;;;;;18.70;99.90;;;;;;4995518;28;19930;-79
2022/07/26 03:34:54;;;;;;;;;;;18.70;99.90;;;;;;4979234;28;19996;-79
2022/07/26 03:37:21;;;;;;;;;;;18.70;99.90;;;;;;4997429;28;20326;-78
2022/07/26 03:39:50;;;;;;;;;;;18.70;99.90;;;;;;5012438;28;19930;-79
2022/07/26 03:42:17;;;;;;;;;;;18.60;99.90;;;;;;4977938;28;19933;-79
2022/07/26 03:44:44;;;;;;;;;;;18.60;99.90;;;;;;5012586;28;19937;-79
2022/07/26 03:47:11;;;;;;;;;;;18.60;99.90;;;;;;5011301;28;19930;-79
2022/07/26 03:49:37;;;;;;;;;;;18.60;99.90;;;;;;4976736;28;19988;-79
2022/07/26 03:52:04;;;;;;;;;;;18.60;99.90;;;;;;5009641;28;19945;-80
2022/07/26 03:54:31;;;;;;;;;;;18.60;99.90;;;;;;4979580;28;19961;-79
2022/07/26 03:56:59;;;;;;;;;;;18.60;99.90;;;;;;4977898;28;19980;-79
2022/07/26 03:59:26;;;;;;;;;;;18.50;99.90;;;;;;5012170;28;20471;-79
2022/07/26 04:01:53;;;;;;;;;;;18.60;99.90;;;;;;4977804;28;19933;-79
2022/07/26 04:04:20;;;;;;;;;;;19.10;99.90;;;;;;5010428;28;20313;-79
2022/07/26 04:06:47;;;;;;;;;;;18.50;99.90;;;;;;4977962;28;19929;-79
2022/07/26 04:09:16;;;;;;;;;;;18.50;99.90;;;;;;4977833;28;19930;-79
2022/07/26 04:11:43;;;;;;;;;;;18.50;99.90;;;;;;4978768;28;20137;-79
2022/07/26 04:14:11;;;;;;;;;;;18.60;99.90;;;;;;5010474;28;19934;-79
2022/07/26 04:16:38;;;;;;;;;;;18.50;99.90;;;;;;4978590;28;19929;-79
2022/07/26 04:19:05;;;;;;;;;;;18.50;99.90;;;;;;4978119;28;19926;-79
2022/07/26 04:21:32;;;;;;;;;;;18.50;99.90;;;;;;4977229;28;19961;-80
2022/07/26 04:23:59;;;;;;;;;;;18.50;99.90;;;;;;4976167;28;20032;-78
2022/07/26 04:26:27;;;;;;;;;;;18.50;99.90;;;;;;4978618;28;20031;-80
2022/07/26 04:28:54;;;;;;;;;;;18.50;99.90;;;;;;4997065;28;20008;-78
2022/07/26 04:31:22;;;;;;;;;;;18.50;99.90;;;;;;4977529;28;20386;-80
2022/07/26 04:33:50;;;;;;;;;;;18.50;99.90;;;;;;4994774;28;20416;-80
2022/07/26 04:36:17;;;;;;;;;;;18.50;99.90;;;;;;4984443;28;19937;-79
2022/07/26 04:38:44;;;;;;;;;;;18.50;99.90;;;;;;4999270;28;19934;-82
2022/07/26 04:41:11;;;;;;;;;;;18.50;99.90;;;;;;4980780;28;19949;-83
2022/07/26 04:43:38;;;;;;;;;;;18.50;99.90;;;;;;4973206;28;20362;-82
2022/07/26 04:46:06;;;;;;;;;;;18.40;99.90;;;;;;4978557;28;19930;-82
2022/07/26 04:48:36;;;;;;;;;;;18.50;99.90;;;;;;4974420;28;19933;-83
2022/07/26 04:51:03;;;;;;;;;;;18.50;99.90;;;;;;4980869;28;19930;-83
2022/07/26 04:53:30;;;;;;;;;;;18.40;99.90;;;;;;4974512;28;19937;-82
2022/07/26 04:55:57;;;;;;;;;;;18.40;99.90;;;;;;4980779;28;19925;-83
2022/07/26 04:58:25;;;;;;;;;;;18.40;99.90;;;;;;5014042;28;19930;-81
2022/07/26 05:00:52;;;;;;;;;;;18.40;99.90;;;;;;4985355;28;20012;-81
2022/07/26 05:03:20;;;;;;;;;;;18.40;99.90;;;;;;4982723;28;19926;-81
2022/07/26 05:05:49;;;;;;;;;;;18.40;99.90;;;;;;4992038;28;19926;-81
2022/07/26 05:08:19;;;;;;;;;;;18.40;99.90;;;;;;4982877;28;19926;-83
2022/07/26 05:10:47;;;;;;;;;;;18.40;99.90;;;;;;4983024;28;20013;-83
2022/07/26 05:13:15;;;;;;;;;;;18.40;99.90;;;;;;5015094;28;19965;-85
2022/07/26 05:15:45;;;;;;;;;;;18.50;99.90;;;;;;4982603;28;19971;-84
2022/07/26 05:18:12;;;;;;;;;;;18.50;99.90;;;;;;5003341;28;20005;-85
2022/07/26 05:20:39;;;;;;;;;;;18.50;99.90;;;;;;4998999;28;19929;-80
2022/07/26 05:23:08;;;;;;;;;;;18.50;99.90;;;;;;4989312;28;20036;-79
2022/07/26 05:25:35;;;;;;;;;;;18.50;99.90;;;;;;4990885;28;19936;-79
2022/07/26 05:28:02;;;;;;;;;;;18.50;99.90;;;;;;5009105;28;20002;-79
2022/07/26 05:30:29;;;;;;;;;;;18.60;99.90;;;;;;5017804;28;20004;-79
2022/07/26 05:32:56;;;;;;;;;;;18.70;99.90;;;;;;5001225;28;19936;-79
2022/07/26 05:35:23;;;;;;;;;;;18.70;99.90;;;;;;5015553;28;19953;-79
2022/07/26 05:37:50;;;;;;;;;;;18.80;99.90;;;;;;4982836;28;20365;-79
2022/07/26 05:40:18;;;;;;;;;;;18.90;99.90;;;;;;5014532;28;20353;-80
2022/07/26 05:42:45;;;;;;;;;;;19.00;99.90;;;;;;5014938;28;19938;-80
2022/07/26 05:45:12;;;;;;;;;;;19.30;99.90;;;;;;4982137;28;19930;-78
2022/07/26 05:47:39;;;;;;;;;;;19.20;99.90;;;;;;4973881;28;19925;-78
2022/07/26 05:50:06;;;;;;;;;;;19.30;99.90;;;;;;5006144;28;19941;-78
2022/07/26 05:52:33;;;;;;;;;;;19.50;99.90;;;;;;4974845;28;20032;-78
2022/07/26 05:55:01;;;;;;;;;;;19.50;99.90;;;;;;4974619;28;19976;-77
2022/07/26 05:57:29;;;;;;;;;;;19.60;99.90;;;;;;4975589;28;19996;-78
2022/07/26 05:59:56;;;;;;;;;;;19.70;99.90;;;;;;4972899;28;20600;-76
2022/07/26 06:02:23;;;;;;;;;;;19.80;99.90;;;;;;5000254;28;20056;-77
2022/07/26 06:04:50;;;;;;;;;;;20.00;99.90;;;;;;5005242;28;19929;-76
2022/07/26 06:07:17;;;;;;;;;;;20.10;99.90;;;;;;4972828;28;19941;-79
2022/07/26 06:09:44;;;;;;;;;;;20.10;99.90;;;;;;4999634;28;19981;-78
2022/07/26 06:12:10;;;;;;;;;;;20.30;99.90;;;;;;4975833;28;20028;-78
2022/07/26 06:14:39;;;;;;;;;;;20.40;99.90;;;;;;4993539;28;20304;-78
2022/07/26 06:17:06;;;;;;;;;;;20.40;99.90;;;;;;4975662;28;19926;-78
2022/07/26 06:19:34;;;;;;;;;;;20.40;99.90;;;;;;4982935;28;19984;-78
2022/07/26 06:22:01;;;;;;;;;;;20.50;99.90;;;;;;4993841;28;19934;-79
2022/07/26 06:24:28;;;;;;;;;;;20.60;99.90;;;;;;4977269;28;19926;-78
2022/07/26 06:26:56;;;;;;;;;;;20.80;99.90;;;;;;4976865;28;19988;-80
2022/07/26 06:29:23;;;;;;;;;;;21.00;99.90;;;;;;4988804;28;20446;-79
2022/07/26 06:31:54;;;;;;;;;;;21.20;99.90;;;;;;4959243;28;19996;-78
2022/07/26 06:34:21;;;;;;;;;;;21.40;99.90;;;;;;4963333;28;19936;-77
2022/07/26 06:36:48;;;;;;;;;;;21.60;99.90;;;;;;4992926;28;19933;-79
2022/07/26 06:39:15;;;;;;;;;;;21.80;99.90;;;;;;4975569;28;19930;-78
2022/07/26 06:41:42;;;;;;;;;;;22.00;99.90;;;;;;5007057;28;20352;-78
2022/07/26 06:44:09;;;;;;;;;;;22.10;99.90;;;;;;4980900;28;19984;-78
2022/07/26 06:46:36;;;;;;;;;;;22.10;99.90;;;;;;5004166;28;19933;-78
2022/07/26 06:49:04;;;;;;;;;;;22.20;99.90;;;;;;4975609;28;20328;-77
2022/07/26 06:51:31;;;;;;;;;;;22.40;99.90;;;;;;4987220;28;19930;-78
2022/07/26 06:53:58;;;;;;;;;;;22.40;99.90;;;;;;4993392;28;20302;-78
2022/07/26 06:56:25;;;;;;;;;;;22.40;99.90;;;;;;4973951;28;20396;-78
2022/07/26 06:58:54;;;;;;;;;;;22.50;99.90;;;;;;4973800;28;19984;-78
2022/07/26 07:01:22;;;;;;;;;;;22.50;99.90;;;;;;4990057;28;19934;-78
2022/07/26 07:03:49;;;;;;;;;;;22.30;99.90;;;;;;5002290;28;20005;-78
2022/07/26 07:06:17;;;;;;;;;;;22.30;99.90;;;;;;4975676;28;19926;-77
2022/07/26 07:08:44;;;;;;;;;;;22.20;99.90;;;;;;4973282;28;19985;-78
2022/07/26 07:11:11;;;;;;;;;;;22.30;99.90;;;;;;4987912;28;20302;-77
2022/07/26 07:13:38;;;;;;;;;;;22.30;99.90;;;;;;4990366;28;20412;-78
2022/07/26 07:16:05;;;;;;;;;;;22.30;99.90;;;;;;4975021;28;19937;-78
2022/07/26 07:18:32;;;;;;;;;;;22.40;99.90;;;;;;4990974;28;20285;-77
2022/07/26 07:20:59;;;;;;;;;;;22.60;99.90;;;;;;4970020;28;19926;-77
2022/07/26 07:23:27;;;;;;;;;;;22.70;99.90;;;;;;4969334;28;19933;-77
2022/07/26 07:25:54;;;;;;;;;;;22.70;99.90;;;;;;5004778;28;19926;-78
2022/07/26 07:28:21;;;;;;;;;;;23.20;99.90;;;;;;4994084;28;19984;-78
2022/07/26 07:30:48;;;;;;;;;;;24.30;99.90;;;;;;4989620;28;19985;-78
2022/07/26 07:33:16;;;;;;;;;;;25.40;99.90;;;;;;4974014;28;19958;-78
2022/07/26 07:35:43;;;;;;;;;;;26.20;99.90;;;;;;4974490;28;20396;-78
2022/07/26 07:38:10;;;;;;;;;;;26.20;99.90;;;;;;5007212;28;19926;-78
2022/07/26 07:40:40;;;;;;;;;;;26.00;99.90;;;;;;4975321;28;19930;-78
2022/07/26 07:43:06;;;;;;;;;;;25.70;99.90;;;;;;4972891;28;19930;-79
2022/07/26 07:45:33;;;;;;;;;;;26.00;99.90;;;;;;4978029;28;19930;-79
2022/07/26 07:48:00;;;;;;;;;;;26.90;99.90;;;;;;4970698;28;19984;-79
2022/07/26 07:50:27;;;;;;;;;;;28.10;99.90;;;;;;5010130;28;19941;-79
2022/07/26 07:52:54;;;;;;;;;;;29.70;99.90;;;;;;4976944;28;19936;-79
2022/07/26 07:55:21;;;;;;;;;;;29.80;99.90;;;;;;4975913;28;19926;-79
2022/07/26 07:57:49;;;;;;;;;;;30.00;99.90;;;;;;4994364;28;19934;-79
2022/07/26 08:00:18;;;;;;;;;;;29.90;99.90;;;;;;4976323;28;19941;-79
2022/07/26 08:02:45;;;;;;;;;;;29.50;99.90;;;;;;4968726;28;19929;-79
2022/07/26 08:05:12;;;;;;;;;;;29.50;99.90;;;;;;5010422;28;19930;-79
2022/07/26 08:07:39;;;;;;;;;;;29.50;99.90;;;;;;4978314;28;19957;-78
2022/07/26 08:10:06;;;;;;;;;;;29.60;99.90;;;;;;4978896;28;19937;-79
2022/07/26 08:12:33;;;;;;;;;;;30.60;99.90;;;;;;4976711;28;19933;-79
2022/07/26 08:15:01;;;;;;;;;;;30.60;99.90;;;;;;4976822;28;19933;-79
2022/07/26 08:17:28;;;;;;;;;;;30.80;99.90;;;;;;5010138;28;20498;-78
2022/07/26 08:19:55;;;;;;;;;;;30.50;99.90;;;;;;4972932;28;19926;-79
2022/07/26 08:22:23;;;;;;;;;;;30.30;99.90;;;;;;5007116;28;19949;-79
2022/07/26 08:24:51;;;;;;;;;;;30.20;99.90;;;;;;4999305;28;20158;-79
2022/07/26 08:27:18;;;;;;;;;;;30.00;99.90;;;;;;4975468;28;19925;-80
2022/07/26 08:29:45;;;;;;;;;;;29.50;99.90;;;;;;5008698;28;19984;-80
2022/07/26 08:32:13;;;;;;;;;;;28.90;99.90;;;;;;5010108;28;19926;-80
2022/07/26 08:34:40;;;;;;;;;;;28.10;99.90;;;;;;4972427;28;19937;-79
2022/07/26 08:37:07;;;;;;;;;;;27.50;99.90;;;;;;4978301;28;19926;-80
2022/07/26 08:39:34;;;;;;;;;;;27.00;99.90;;;;;;4971312;28;19930;-80
2022/07/26 08:42:01;;;;;;;;;;;26.60;99.90;;;;;;4986963;28;19929;-80
2022/07/26 08:44:30;;;;;;;;;;;26.40;99.90;;;;;;4974567;28;19936;-80
2022/07/26 08:46:57;;;;;;;;;;;26.10;99.90;;;;;;5006716;28;19930;-79
2022/07/26 08:49:26;;;;;;;;;;;25.70;99.90;;;;;;4977555;28;19968;-80
2022/07/26 08:51:53;;;;;;;;;;;25.30;99.90;;;;;;4976095;28;19933;-78
2022/07/26 08:54:19;;;;;;;;;;;24.70;99.90;;;;;;5008245;28;20368;-79
2022/07/26 08:56:49;;;;;;;;;;;24.00;99.90;;;;;;5008665;28;20024;-80
2022/07/26 08:59:17;;;;;;;;;;;23.50;99.90;;;;;;4977947;28;19934;-79
2022/07/26 09:01:51;;;;;;;;;;;23.20;99.90;;;;;;4956791;28;19926;-79
2022/07/26 09:04:19;;;;;;;;;;;23.00;99.90;;;;;;4957445;28;19965;-79
2022/07/26 09:06:56;;;;;;;;;;;22.90;99.90;;;;;;4971097;28;19993;-80
2022/07/26 09:09:23;;;;;;;;;;;22.80;99.90;;;;;;4977622;28;19976;-80
2022/07/26 09:11:50;;;;;;;;;;;23.10;99.90;;;;;;4978521;28;20281;-81
2022/07/26 09:14:17;;;;;;;;;;;23.90;99.90;;;;;;4978137;28;19926;-80
2022/07/26 09:16:55;;;;;;;;;;;24.80;99.90;;;;;;5013830;28;19929;-80
2022/07/26 09:19:23;;;;;;;;;;;25.70;99.90;;;;;;5016382;28;20396;-79
2022/07/26 09:21:50;;;;;;;;;;;26.50;99.90;;;;;;4976378;28;19930;-79
2022/07/26 09:24:31;;;;;;;;;;;26.90;99.90;;;;;;4991131;28;19926;-80
2022/07/26 09:26:58;;;;;;;;;;;26.80;99.90;;;;;;4983239;28;20054;-79
2022/07/26 09:29:27;;;;;;;;;;;26.50;99.90;;;;;;4980881;28;19984;-78
2022/07/26 09:32:08;;;;;;;;;;;26.20;99.90;;;;;;4996413;28;20024;-80
2022/07/26 09:34:35;;;;;;;;;;;26.10;99.90;;;;;;4975971;28;19942;-79
2022/07/26 09:37:02;;;;;;;;;;;25.90;99.90;;;;;;4960583;28;19937;-80
2022/07/26 09:39:30;;;;;;;;;;;25.80;99.90;;;;;;4960986;28;20083;-80
2022/07/26 09:41:58;;;;;;;;;;;25.90;99.90;;;;;;4980919;28;19930;-82
2022/07/26 09:44:27;;;;;;;;;;;26.20;99.90;;;;;;5006168;28;19926;-83
2022/07/26 09:46:55;;;;;;;;;;;26.50;99.90;;;;;;5010159;28;19933;-80
2022/07/26 09:49:22;;;;;;;;;;;26.80;99.90;;;;;;4979293;28;19926;-79
2022/07/26 09:51:49;;;;;;;;;;;27.30;99.90;;;;;;4978202;28;20357;-79
2022/07/26 09:54:18;;;;;;;;;;;27.50;99.90;;;;;;4977030;28;20040;-79
2022/07/26 09:56:47;;;;;;;;;;;27.60;99.90;;;;;;4977283;28;19925;-79
2022/07/26 09:59:15;;;;;;;;;;;27.90;99.90;;;;;;4976790;28;19976;-80
2022/07/26 10:01:42;;;;;;;;;;;28.40;99.90;;;;;;4992112;28;20416;-78
2022/07/26 10:04:09;;;;;;;;;;;29.00;99.90;;;;;;4971373;28;19992;-77
2022/07/26 10:06:36;;;;;;;;;;;29.10;99.90;;;;;;4989351;28;19926;-78
2022/07/26 10:09:04;;;;;;;;;;;29.10;99.90;;;;;;4968436;28;19925;-77
2022/07/26 10:11:36;;;;;;;;;;;28.70;99.90;;;;;;4971290;28;19929;-77
2022/07/26 10:14:17;;;;;;;;;;;28.00;99.50;;;;;;4966623;28;19930;-78
2022/07/26 10:16:46;;;;;;;;;;;27.30;99.90;;;;;;4981665;28;20009;-77
2022/07/26 10:19:33;;;;;;;;;;;26.70;99.90;;;;;;4973404;28;19929;-77
2022/07/26 10:22:15;;;;;;;;;;;26.30;99.90;;;;;;4973190;28;19930;-81
2022/07/26 10:24:41;;;;;;;;;;;25.40;99.90;;;;;;4973867;28;19953;-81
2022/07/26 10:27:32;;;;;;;;;;;25.30;99.90;;;;;;5004437;28;20436;-81
2022/07/26 10:30:14;;;;;;;;;;;25.10;99.90;;;;;;4986124;28;19929;-80
2022/07/26 10:32:43;;;;;;;;;;;24.90;99.90;;;;;;4999552;28;19934;-81
2022/07/26 10:35:25;;;;;;;;;;;24.90;99.90;;;;;;4973800;28;20370;-81
2022/07/26 10:37:57;;;;;;;;;;;24.90;99.90;;;;;;4972052;28;20348;-80
2022/07/26 10:40:28;;;;;;;;;;;24.80;99.90;;;;;;4971714;28;19926;-81
2022/07/26 10:43:06;;;;;;;;;;;24.70;99.90;;;;;;4982690;28;19926;-79
2022/07/26 10:45:33;;;;;;;;;;;24.70;99.90;;;;;;4991138;28;19938;-80
2022/07/26 10:48:15;;;;;;;;;;;24.80;99.90;;;;;;4990634;28;20453;-79
2022/07/26 10:50:42;;;;;;;;;;;24.80;99.90;;;;;;4977459;28;19977;-78
2022/07/26 10:53:10;;;;;;;;;;;24.90;99.90;;;;;;4969331;28;19960;-78
2022/07/26 10:55:56;;;;;;;;;;;24.90;99.90;;;;;;4967417;28;19934;-78
2022/07/26 10:58:25;;;;;;;;;;;24.90;99.90;;;;;;4973693;28;19930;-80
2022/07/26 11:00:56;;;;;;;;;;;24.90;99.90;;;;;;4977619;28;20411;-81
2022/07/26 11:03:24;;;;;;;;;;;24.90;99.90;;;;;;4974261;28;19929;-80
2022/07/26 11:05:51;;;;;;;;;;;24.90;99.90;;;;;;4978357;28;19933;-80
2022/07/26 11:08:18;;;;;;;;;;;24.90;99.90;;;;;;4979439;28;19930;-80
2022/07/26 11:10:45;;;;;;;;;;;25.10;99.90;;;;;;4980333;28;20443;-80
2022/07/26 11:13:13;;;;;;;;;;;25.30;99.90;;;;;;4980281;28;19926;-81
2022/07/26 11:15:42;;;;;;;;;;;25.60;99.90;;;;;;4995688;28;20354;-80
2022/07/26 11:18:21;;;;;;;;;;;25.80;99.90;;;;;;4998629;28;20699;-81
2022/07/26 11:20:51;;;;;;;;;;;25.80;99.90;;;;;;4977040;28;19960;-80
2022/07/26 11:23:25;;;;;;;;;;;25.70;99.90;;;;;;5007182;28;19936;-78
2022/07/26 11:26:13;;;;;;;;;;;25.70;99.90;;;;;;5012483;28;20251;-82
2022/07/26 11:28:44;;;;;;;;;;;25.80;99.90;;;;;;4991527;28;19933;-78
2022/07/26 11:31:11;;;;;;;;;;;26.00;99.90;;;;;;4980445;28;19933;-79
2022/07/26 11:33:39;;;;;;;;;;;26.40;99.90;;;;;;4977019;28;19930;-78
2022/07/26 11:36:08;;;;;;;;;;;26.60;99.90;;;;;;4988567;28;20378;-80
2022/07/26 11:38:53;;;;;;;;;;;26.80;99.90;;;;;;4975525;28;19933;-82
2022/07/26 11:41:20;;;;;;;;;;;27.10;99.90;;;;;;5000191;28;19933;-82
2022/07/26 11:43:47;;;;;;;;;;;27.20;99.90;;;;;;4977842;28;19984;-82
2022/07/26 11:46:16;;;;;;;;;;;27.20;99.90;;;;;;4998775;28;20368;-82
2022/07/26 11:48:47;;;;;;;;;;;27.20;99.90;;;;;;4985761;28;19930;-82
2022/07/26 11:51:16;;;;;;;;;;;27.20;99.90;;;;;;4978185;28;19930;-84
2022/07/26 11:53:45;;;;;;;;;;;27.10;99.90;;;;;;4978248;28;19926;-84
2022/07/26 11:56:13;;;;;;;;;;;27.10;99.90;;;;;;4977269;28;20004;-84
2022/07/26 11:58:41;;;;;;;;;;;27.00;99.90;;;;;;4979415;28;19934;-84
2022/07/26 12:01:08;;;;;;;;;;;27.20;99.90;;;;;;4998024;28;19925;-83
2022/07/26 12:03:35;;;;;;;;;;;27.30;99.90;;;;;;5011503;28;20298;-83
2022/07/26 12:06:04;;;;;;;;;;;27.40;99.90;;;;;;4979880;28;19976;-83
2022/07/26 12:08:42;;;;;;;;;;;27.50;99.90;;;;;;4998697;28;19930;-84
2022/07/26 12:11:09;;;;;;;;;;;27.70;99.90;;;;;;4979374;28;19930;-83
2022/07/26 12:13:53;;;;;;;;;;;27.70;99.90;;;;;;4976441;28;19926;-83
2022/07/26 12:16:43;;;;;;;;;;;27.70;99.90;;;;;;4977770;28;20016;-83
2022/07/26 12:19:21;;;;;;;;;;;27.90;99.90;;;;;;4972392;28;19930;-83
2022/07/26 12:21:49;;;;;;;;;;;28.30;99.90;;;;;;4972654;28;19926;-82
2022/07/26 12:24:40;;;;;;;;;;;29.10;99.90;;;;;;4976518;28;19926;-83
2022/07/26 12:27:11;;;;;;;;;;;28.40;99.70;;;;;;4994449;28;19930;-83
2022/07/26 12:29:39;;;;;;;;;;;28.30;99.20;;;;;;4996923;28;20002;-80
2022/07/26 12:32:08;;;;;;;;;;;28.40;99.50;;;;;;4983838;28;19930;-79
2022/07/26 12:34:35;;;;;;;;;;;28.30;99.00;;;;;;4973326;28;20020;-78
2022/07/26 12:37:20;;;;;;;;;;;28.30;99.70;;;;;;4971285;28;20024;-78
2022/07/26 12:40:02;;;;;;;;;;;28.60;99.80;;;;;;4966785;28;19984;-79
2022/07/26 12:42:31;;;;;;;;;;;28.90;98.60;;;;;;4978610;28;20013;-81
2022/07/26 12:44:59;;;;;;;;;;;28.90;98.80;;;;;;4971094;28;20021;-78
2022/07/26 12:47:26;;;;;;;;;;;29.10;98.40;;;;;;5000152;28;19980;-79
2022/07/26 12:49:53;;;;;;;;;;;29.00;98.40;;;;;;4972592;28;19929;-77
2022/07/26 12:52:21;;;;;;;;;;;29.00;98.50;;;;;;4990520;28;19934;-78
2022/07/26 12:54:48;;;;;;;;;;;28.80;97.90;;;;;;4986244;28;19929;-78
2022/07/26 12:57:15;;;;;;;;;;;28.60;97.80;;;;;;4969455;28;19937;-78
2022/07/26 12:59:44;;;;;;;;;;;28.00;97.30;;;;;;4972822;28;19926;-79
2022/07/26 13:02:11;;;;;;;;;;;28.30;98.00;;;;;;4971031;28;19938;-80
2022/07/26 13:04:41;;;;;;;;;;;28.20;97.80;;;;;;4991551;28;19929;-79
2022/07/26 13:07:08;;;;;;;;;;;28.00;97.70;;;;;;4972307;28;19988;-80
2022/07/26 13:09:36;;;;;;;;;;;28.00;97.50;;;;;;5007183;28;19934;-83
2022/07/26 13:12:04;;;;;;;;;;;28.00;97.70;;;;;;4979388;28;19930;-81
2022/07/26 13:14:32;;;;;;;;;;;28.10;97.60;;;;;;4968916;28;20361;-80
2022/07/26 13:17:01;;;;;;;;;;;28.10;98.10;;;;;;4992238;28;19926;-81
2022/07/26 13:19:28;;;;;;;;;;;28.00;97.50;;;;;;4966263;28;20006;-80
2022/07/26 13:21:55;;;;;;;;;;;28.00;97.20;;;;;;4978757;28;19929;-81
2022/07/26 13:24:26;;;;;;;;;;;27.90;97.10;;;;;;4972770;28;19969;-80
2022/07/26 13:26:53;;;;;;;;;;;28.00;97.40;;;;;;4969016;28;20448;-80
2022/07/26 13:29:21;;;;;;;;;;;28.20;97.40;;;;;;4988097;28;19952;-80
2022/07/26 13:31:49;;;;;;;;;;;28.40;97.40;;;;;;4965461;28;20128;-81
2022/07/26 13:34:17;;;;;;;;;;;28.50;96.90;;;;;;4987148;28;20420;-81
2022/07/26 13:36:51;;;;;;;;;;;28.50;96.80;;;;;;4985529;28;19930;-81
2022/07/26 13:39:22;;;;;;;;;;;28.70;96.40;;;;;;4988670;28;19930;-81
2022/07/26 13:41:59;;;;;;;;;;;28.80;96.40;;;;;;4991906;28;19937;-83
2022/07/26 13:44:30;;;;;;;;;;;28.70;96.20;;;;;;4960905;28;19933;-81
2022/07/26 13:47:01;;;;;;;;;;;28.60;96.20;;;;;;4978306;28;19933;-83
2022/07/26 13:49:31;;;;;;;;;;;28.50;96.20;;;;;;4992871;28;19993;-80
2022/07/26 13:52:03;;;;;;;;;;;28.30;96.00;;;;;;4978980;28;20017;-83
2022/07/26 13:54:34;;;;;;;;;;;27.90;95.80;;;;;;4977841;28;20037;-79
2022/07/26 13:57:06;;;;;;;;;;;27.70;96.20;;;;;;4978820;28;19937;-81
2022/07/26 13:59:43;;;;;;;;;;;27.30;96.40;;;;;;4992514;28;19933;-83
2022/07/26 14:02:10;;;;;;;;;;;27.00;96.60;;;;;;4977680;28;19926;-85
2022/07/26 14:04:42;;;;;;;;;;;26.60;96.50;;;;;;4992454;28;20028;-84
2022/07/26 14:07:14;;;;;;;;;;;26.10;97.50;;;;;;5010442;28;19949;-83
2022/07/26 14:09:44;;;;;;;;;;;25.60;97.90;;;;;;5010364;28;19933;-80
2022/07/26 14:12:14;;;;;;;;;;;25.10;98.40;;;;;;5009732;28;19934;-82
2022/07/26 14:14:48;;;;;;;;;;;24.70;98.50;;;;;;4964096;28;19930;-83
2022/07/26 14:17:16;;;;;;;;;;;24.50;99.30;;;;;;4976320;28;19968;-81
2022/07/26 14:19:51;;;;;;;;;;;24.20;99.60;;;;;;4959469;28;20448;-81
2022/07/26 14:22:19;;;;;;;;;;;23.90;99.90;;;;;;5007981;28;19930;-82
2022/07/26 14:24:54;;;;;;;;;;;23.60;99.90;;;;;;5009981;28;20521;-83